createdAt,value
2018-02-04T00:00:54.356Z,97462.56
2018-02-04T00:03:22.659Z,97468.02
2018-02-04T00:05:51.028Z,97466.83
2018-02-04T00:08:18.619Z,97466.95
2018-02-04T00:10:47.146Z,97466.55
2018-02-04T00:13:16.251Z,97469.73
2018-02-04T00:15:44.884Z,97469.20
2018-02-04T00:18:13.236Z,97471.11
2018-02-04T00:20:41.551Z,97475.48
2018-02-04T00:23:10.202Z,97476.88
2018-02-04T00:25:38.500Z,97471.16
2018-02-04T00:28:06.807Z,97482.16
2018-02-04T00:30:35.336Z,97474.12
2018-02-04T00:33:03.655Z,97476.27
2018-02-04T00:35:32.721Z,97475.66
2018-02-04T00:38:01.332Z,97480.37
2018-02-04T00:40:29.645Z,97474.30
2018-02-04T00:42:57.956Z,97476.27
2018-02-04T00:45:26.640Z,97478.37
2018-02-04T00:47:54.977Z,97483.77
2018-02-04T00:50:23.287Z,97490.44
2018-02-04T00:52:51.699Z,97486.75
2018-02-04T00:55:20.776Z,97491.80
2018-02-04T00:57:49.088Z,97491.49
2018-02-04T01:00:17.692Z,97493.28
2018-02-04T01:02:46.002Z,97497.59
2018-02-04T01:05:14.315Z,97500.34
2018-02-04T01:07:43.447Z,97497.84
2018-02-04T01:10:11.759Z,97497.00
2018-02-04T01:12:40.111Z,97502.77
2018-02-04T01:15:09.627Z,97501.98
2018-02-04T01:17:37.943Z,97506.39
2018-02-04T01:20:06.255Z,97509.58
2018-02-04T01:22:34.616Z,97508.09
2018-02-04T01:25:02.923Z,97512.06
2018-02-04T01:27:31.531Z,97518.64
2018-02-04T01:30:00.323Z,97518.97
2018-02-04T01:32:29.287Z,97522.73
2018-02-04T01:34:58.271Z,97523.50
2018-02-04T01:37:26.662Z,97522.46
2018-02-04T01:39:54.980Z,97525.23
2018-02-04T01:42:23.304Z,97527.31
2018-02-04T01:44:51.639Z,97529.02
2018-02-04T01:47:20.730Z,97528.05
2018-02-04T01:49:49.647Z,97531.13
2018-02-04T01:52:18.720Z,97531.88
2018-02-04T01:54:47.048Z,97530.63
2018-02-04T01:57:15.351Z,97537.48
2018-02-04T01:59:44.057Z,97539.16
2018-02-04T02:02:12.453Z,97532.84
2018-02-04T02:04:41.519Z,97537.67
2018-02-04T02:07:10.067Z,97538.13
2018-02-04T02:09:38.368Z,97536.61
2018-02-04T02:12:06.744Z,97538.95
2018-02-04T02:14:35.071Z,97540.16
2018-02-04T02:17:04.141Z,97540.78
2018-02-04T02:19:32.482Z,97546.27
2018-02-04T02:22:00.804Z,97554.87
2018-02-04T02:24:29.146Z,97559.05
2018-02-04T02:26:58.171Z,97556.91
2018-02-04T02:29:28.505Z,97561.30
2018-02-04T02:31:58.317Z,97564.98
2018-02-04T02:34:28.104Z,97561.64
2018-02-04T02:36:56.567Z,97569.92
2018-02-04T02:39:25.052Z,97571.65
2018-02-04T02:41:53.363Z,97574.59
2018-02-04T02:44:22.140Z,97573.80
2018-02-04T02:46:50.463Z,97578.14
2018-02-04T02:49:18.839Z,97579.89
2018-02-04T02:51:47.204Z,97580.84
2018-02-04T02:54:15.516Z,97582.41
2018-02-04T02:56:43.828Z,97585.67
2018-02-04T02:59:12.865Z,97584.77
2018-02-04T03:01:41.222Z,97586.41
2018-02-04T03:04:09.545Z,97587.95
2018-02-04T03:06:37.855Z,97589.02
2018-02-04T03:09:06.655Z,97594.70
2018-02-04T03:11:34.972Z,97597.79
2018-02-04T03:14:03.292Z,97605.11
2018-02-04T03:16:31.987Z,97601.00
2018-02-04T03:19:00.332Z,97598.85
2018-02-04T03:21:28.954Z,97600.82
2018-02-04T03:23:57.295Z,97603.32
2018-02-04T03:26:25.619Z,97610.36
2018-02-04T03:28:54.051Z,97604.62
2018-02-04T03:31:22.896Z,97612.77
2018-02-04T03:33:51.711Z,97613.07
2018-02-04T03:36:20.060Z,97616.64
2018-02-04T03:38:49.252Z,97615.69
2018-02-04T03:41:18.251Z,97615.75
2018-02-04T03:43:46.729Z,97624.38
2018-02-04T03:46:15.043Z,97625.20
2018-02-04T03:48:43.770Z,97626.94
2018-02-04T03:51:12.087Z,97631.64
2018-02-04T03:53:40.247Z,97633.00
2018-02-04T03:56:08.691Z,97635.36
2018-02-04T03:58:37.004Z,97632.77
2018-02-04T04:01:06.095Z,97632.77
2018-02-04T04:03:35.244Z,97635.03
2018-02-04T04:06:03.555Z,97633.55
2018-02-04T04:08:31.880Z,97642.11
2018-02-04T04:11:00.575Z,97646.84
2018-02-04T04:13:28.887Z,97643.28
2018-02-04T04:15:57.212Z,97646.23
2018-02-04T04:18:25.555Z,97651.66
2018-02-04T04:20:53.879Z,97654.08
2018-02-04T04:23:22.239Z,97651.44
2018-02-04T04:25:51.312Z,97658.90
2018-02-04T04:28:20.416Z,97662.85
2018-02-04T04:30:48.764Z,97663.88
2018-02-04T04:33:17.077Z,97664.77
2018-02-04T04:35:45.387Z,97666.05
2018-02-04T04:38:14.032Z,97663.42
2018-02-04T04:40:42.361Z,97667.94
2018-02-04T04:43:10.676Z,97666.02
2018-02-04T04:45:39.284Z,97665.56
2018-02-04T04:48:07.603Z,97663.83
2018-02-04T04:50:35.923Z,97663.41
2018-02-04T04:53:05.060Z,97661.66
2018-02-04T04:55:34.171Z,97657.11
2018-02-04T04:58:02.486Z,97658.14
2018-02-04T05:00:31.079Z,97666.20
2018-02-04T05:02:59.391Z,97660.87
2018-02-04T05:05:27.703Z,97658.72
2018-02-04T05:07:56.039Z,97662.02
2018-02-04T05:10:24.384Z,97664.25
2018-02-04T05:12:52.696Z,97667.62
2018-02-04T05:15:21.013Z,97669.66
2018-02-04T05:17:49.356Z,97676.50
2018-02-04T05:20:17.666Z,97671.89
2018-02-04T05:22:46.027Z,97680.81
2018-02-04T05:25:14.335Z,97678.62
2018-02-04T05:27:42.651Z,97680.27
2018-02-04T05:30:11.263Z,97684.16
2018-02-04T05:32:39.571Z,97683.80
2018-02-04T05:35:07.952Z,97682.20
2018-02-04T05:37:36.626Z,97691.56
2018-02-04T05:40:04.944Z,97696.31
2018-02-04T05:42:34.025Z,97698.94
2018-02-04T05:45:02.720Z,97705.66
2018-02-04T05:47:31.807Z,97704.41
2018-02-04T05:50:00.120Z,97716.56
2018-02-04T05:52:28.483Z,97718.36
2018-02-04T05:54:56.800Z,97727.14
2018-02-04T05:57:25.123Z,97729.92
2018-02-04T05:59:53.568Z,97730.72
2018-02-04T06:02:21.879Z,97734.19
2018-02-04T06:04:50.195Z,97730.58
2018-02-04T06:07:18.555Z,97736.53
2018-02-04T06:09:46.873Z,97742.93
2018-02-04T06:12:15.263Z,97745.02
2018-02-04T06:14:43.828Z,97748.09
2018-02-04T06:17:12.143Z,97756.31
2018-02-04T06:19:40.473Z,97766.84
2018-02-04T06:22:08.831Z,97767.55
2018-02-04T06:24:37.143Z,97768.30
2018-02-04T06:27:05.464Z,97778.56
2018-02-04T06:29:33.939Z,97787.52
2018-02-04T06:32:02.251Z,97788.05
2018-02-04T06:34:30.567Z,97792.64
2018-02-04T06:36:59.019Z,97798.27
2018-02-04T06:39:27.351Z,97796.38
2018-02-04T06:41:55.856Z,97801.13
2018-02-04T06:44:24.211Z,97804.63
2018-02-04T06:46:52.519Z,97814.53
2018-02-04T06:49:20.847Z,97813.78
2018-02-04T06:51:50.387Z,97822.55
2018-02-04T06:54:18.699Z,97822.37
2018-02-04T06:56:47.011Z,97823.89
2018-02-04T06:59:15.359Z,97825.31
2018-02-04T07:01:43.672Z,97828.30
2018-02-04T07:04:11.992Z,97831.44
2018-02-04T07:06:40.352Z,97834.83
2018-02-04T07:09:08.690Z,97843.81
2018-02-04T07:11:37.008Z,97840.92
2018-02-04T07:14:05.356Z,97843.36
2018-02-04T07:16:33.683Z,97844.89
2018-02-04T07:19:02.012Z,97857.63
2018-02-04T07:21:30.386Z,97857.23
2018-02-04T07:23:58.720Z,97857.45
2018-02-04T07:26:27.043Z,97864.84
2018-02-04T07:28:55.412Z,97871.28
2018-02-04T07:31:23.735Z,97868.91
2018-02-04T07:33:52.823Z,97871.96
2018-02-04T07:36:21.168Z,97872.96
2018-02-04T07:38:49.537Z,97881.72
2018-02-04T07:41:17.908Z,97881.91
2018-02-04T07:43:46.232Z,97881.30
2018-02-04T07:46:14.543Z,97883.58
2018-02-04T07:48:42.879Z,97883.77
2018-02-04T07:51:11.201Z,97886.03
2018-02-04T07:53:39.556Z,97888.86
2018-02-04T07:56:07.918Z,97889.53
2018-02-04T07:58:36.243Z,97892.88
2018-02-04T08:01:04.552Z,97892.80
2018-02-04T08:03:32.903Z,97900.92
2018-02-04T08:06:01.231Z,97902.10
2018-02-04T08:08:29.568Z,97906.23
2018-02-04T08:10:58.247Z,97905.37
2018-02-04T08:13:26.556Z,97900.89
2018-02-04T08:15:54.876Z,97895.44
2018-02-04T08:18:23.224Z,97896.30
2018-02-04T08:20:52.259Z,97897.73
2018-02-04T08:23:20.588Z,97896.58
2018-02-04T08:25:49.795Z,97899.75
2018-02-04T08:28:18.106Z,97907.66
2018-02-04T08:30:46.420Z,97909.23
2018-02-04T08:33:15.048Z,97912.13
2018-02-04T08:35:43.431Z,97913.66
2018-02-04T08:38:12.827Z,97919.27
2018-02-04T08:40:41.899Z,97918.46
2018-02-04T08:43:10.207Z,97916.78
2018-02-04T08:45:38.987Z,97913.14
2018-02-04T08:48:08.094Z,97920.80
2018-02-04T08:50:37.159Z,97918.20
2018-02-04T08:53:05.465Z,97920.23
2018-02-04T08:55:34.838Z,97926.59
2018-02-04T08:58:03.184Z,97927.56
2018-02-04T09:00:31.512Z,97926.67
2018-02-04T09:02:59.824Z,97929.55
2018-02-04T09:05:28.983Z,97931.91
2018-02-04T09:07:57.871Z,97931.67
2018-02-04T09:10:26.252Z,97938.72
2018-02-04T09:12:54.639Z,97942.48
2018-02-04T09:15:23.351Z,97940.82
2018-02-04T09:17:52.035Z,97947.92
2018-02-04T09:20:20.352Z,97945.94
2018-02-04T09:22:49.159Z,97945.37
2018-02-04T09:25:17.515Z,97949.84
2018-02-04T09:27:45.816Z,97951.13
2018-02-04T09:30:14.120Z,97955.50
2018-02-04T09:32:43.248Z,97957.03
2018-02-04T09:35:11.559Z,97955.61
2018-02-04T09:37:39.869Z,97960.78
2018-02-04T09:40:08.329Z,97957.56
2018-02-04T09:42:36.700Z,97962.14
2018-02-04T09:45:05.595Z,97962.44
2018-02-04T09:47:34.196Z,97966.88
2018-02-04T09:50:02.517Z,97972.22
2018-02-04T09:52:30.816Z,97975.30
2018-02-04T09:54:59.167Z,97976.27
2018-02-04T09:57:27.467Z,97974.16
2018-02-04T09:59:56.720Z,97979.33
2018-02-04T10:02:25.339Z,97981.81
2018-02-04T10:04:53.657Z,97985.08
2018-02-04T10:07:24.679Z,97984.37
2018-02-04T10:09:53.300Z,97985.56
2018-02-04T10:12:21.606Z,97987.56
2018-02-04T10:14:49.905Z,97990.50
2018-02-04T10:17:18.240Z,97991.83
2018-02-04T10:19:47.107Z,97996.52
2018-02-04T10:22:15.713Z,97995.84
2018-02-04T10:24:44.787Z,97999.03
2018-02-04T10:27:13.676Z,97998.28
2018-02-04T10:29:42.000Z,97999.09
2018-02-04T10:32:10.305Z,97995.77
2018-02-04T10:34:38.916Z,98000.59
2018-02-04T10:37:07.224Z,98006.74
2018-02-04T10:39:35.522Z,98003.99
2018-02-04T10:42:03.861Z,98004.61
2018-02-04T10:44:32.295Z,98005.22
2018-02-04T10:47:00.648Z,98006.02
2018-02-04T10:49:28.957Z,98005.55
2018-02-04T10:52:02.231Z,98004.37
2018-02-04T10:54:30.544Z,98003.20
2018-02-04T10:56:58.861Z,98005.20
2018-02-04T10:59:27.207Z,98003.06
2018-02-04T11:01:56.279Z,98007.38
2018-02-04T11:04:24.579Z,98005.41
2018-02-04T11:06:52.927Z,98008.36
2018-02-04T11:09:21.232Z,98011.30
2018-02-04T11:11:49.543Z,98011.24
2018-02-04T11:14:18.208Z,98004.94
2018-02-04T11:16:46.520Z,98017.15
2018-02-04T11:19:15.475Z,98009.26
2018-02-04T11:21:44.575Z,98006.18
2018-02-04T11:24:12.899Z,98009.50
2018-02-04T11:26:41.218Z,98005.66
2018-02-04T11:29:09.815Z,98004.16
2018-02-04T11:31:38.884Z,98001.84
2018-02-04T11:34:07.188Z,97998.85
2018-02-04T11:36:36.280Z,97997.08
2018-02-04T11:39:05.377Z,97997.56
2018-02-04T11:41:34.736Z,97998.17
2018-02-04T11:44:03.035Z,98002.52
2018-02-04T11:46:31.343Z,98005.92
2018-02-04T11:48:59.719Z,98006.80
2018-02-04T11:51:28.045Z,98002.85
2018-02-04T11:53:56.379Z,97999.68
2018-02-04T11:56:25.035Z,98003.96
2018-02-04T11:58:53.341Z,98002.78
2018-02-04T12:01:21.652Z,97999.35
2018-02-04T12:03:50.341Z,98006.93
2018-02-04T12:06:18.643Z,98003.46
2018-02-04T12:08:47.400Z,98005.16
2018-02-04T12:11:15.936Z,98007.98
2018-02-04T12:13:44.236Z,98000.08
2018-02-04T12:16:12.536Z,98004.87
2018-02-04T12:18:41.139Z,98006.12
2018-02-04T12:21:09.448Z,98010.58
2018-02-04T12:23:38.524Z,98007.00
2018-02-04T12:26:07.043Z,98010.24
2018-02-04T12:28:35.363Z,98012.02
2018-02-04T12:31:03.735Z,98011.55
2018-02-04T12:33:32.071Z,98015.75
2018-02-04T12:36:00.378Z,98014.50
2018-02-04T12:38:30.504Z,98007.55
2018-02-04T12:40:58.815Z,98011.01
2018-02-04T12:43:27.158Z,98012.03
2018-02-04T12:45:55.467Z,98013.30
2018-02-04T12:48:24.689Z,98011.69
2018-02-04T12:50:54.128Z,98018.67
2018-02-04T12:53:22.476Z,98022.08
2018-02-04T12:55:51.543Z,98029.36
2018-02-04T12:58:20.169Z,98025.19
2018-02-04T13:00:48.506Z,98025.89
2018-02-04T13:03:16.811Z,98031.83
2018-02-04T13:05:45.914Z,98033.09
2018-02-04T13:08:14.979Z,98036.05
2018-02-04T13:10:43.288Z,98033.00
2018-02-04T13:13:12.664Z,98038.61
2018-02-04T13:15:40.983Z,98040.14
2018-02-04T13:18:09.301Z,98041.17
2018-02-04T13:20:37.639Z,98037.19
2018-02-04T13:23:05.943Z,98032.48
2018-02-04T13:25:34.971Z,98033.95
2018-02-04T13:28:03.295Z,98038.20
2018-02-04T13:30:31.603Z,98039.45
2018-02-04T13:33:00.213Z,98042.94
2018-02-04T13:35:28.528Z,98037.13
2018-02-04T13:37:56.834Z,98045.46
2018-02-04T13:40:25.160Z,98042.25
2018-02-04T13:42:53.517Z,98042.61
2018-02-04T13:45:22.343Z,98041.55
2018-02-04T13:47:50.655Z,98045.56
2018-02-04T13:50:19.165Z,98047.75
2018-02-04T13:52:47.519Z,98047.16
2018-02-04T13:55:15.867Z,98052.97
2018-02-04T13:57:44.183Z,98061.94
2018-02-04T14:00:12.735Z,98063.55
2018-02-04T14:02:41.035Z,98066.76
2018-02-04T14:05:09.336Z,98069.28
2018-02-04T14:07:39.177Z,98073.28
2018-02-04T14:10:08.247Z,98084.94
2018-02-04T14:12:36.544Z,98081.97
2018-02-04T14:15:05.672Z,98083.98
2018-02-04T14:17:34.552Z,98084.44
2018-02-04T14:20:02.869Z,98093.89
2018-02-04T14:22:31.236Z,98097.00
2018-02-04T14:24:59.547Z,98095.16
2018-02-04T14:27:27.856Z,98100.75
2018-02-04T14:29:56.519Z,98096.46
2018-02-04T14:32:25.588Z,98098.32
2018-02-04T14:34:53.938Z,98105.74
2018-02-04T14:37:22.517Z,98113.06
2018-02-04T14:39:50.832Z,98113.50
2018-02-04T14:42:19.148Z,98121.06
2018-02-04T14:44:47.832Z,98120.52
2018-02-04T14:47:16.188Z,98133.28
2018-02-04T14:49:44.471Z,98127.97
2018-02-04T14:52:12.847Z,98130.80
2018-02-04T14:54:41.919Z,98130.37
2018-02-04T14:57:10.228Z,98130.97
2018-02-04T14:59:39.355Z,98136.09
2018-02-04T15:02:07.663Z,98144.27
2018-02-04T15:04:35.996Z,98140.72
2018-02-04T15:07:04.333Z,98148.05
2018-02-04T15:09:32.651Z,98150.98
2018-02-04T15:12:00.963Z,98150.20
2018-02-04T15:14:29.308Z,98152.98
2018-02-04T15:16:57.642Z,98158.20
2018-02-04T15:19:25.946Z,98157.23
2018-02-04T15:21:55.334Z,98153.90
2018-02-04T15:24:23.747Z,98163.14
2018-02-04T15:26:52.073Z,98160.19
2018-02-04T15:29:20.423Z,98159.29
2018-02-04T15:31:48.760Z,98170.67
2018-02-04T15:34:17.108Z,98173.70
2018-02-04T15:36:45.487Z,98171.25
2018-02-04T15:39:14.607Z,98174.64
2018-02-04T15:41:43.683Z,98174.54
2018-02-04T15:44:12.429Z,98178.94
2018-02-04T15:46:40.740Z,98184.84
2018-02-04T15:49:09.059Z,98184.61
2018-02-04T15:51:37.709Z,98193.27
2018-02-04T15:54:06.015Z,98199.50
2018-02-04T15:56:34.336Z,98202.69
2018-02-04T15:59:02.452Z,98202.80
2018-02-04T16:01:31.535Z,98206.58
2018-02-04T16:03:59.847Z,98212.72
2018-02-04T16:06:28.207Z,98217.28
2018-02-04T16:08:56.549Z,98213.25
2018-02-04T16:11:24.863Z,98221.41
2018-02-04T16:13:54.876Z,98217.19
2018-02-04T16:16:23.192Z,98217.03
2018-02-04T16:18:51.516Z,98217.42
2018-02-04T16:21:19.884Z,98216.80
2018-02-04T16:23:48.200Z,98226.31
2018-02-04T16:26:17.191Z,98230.47
2018-02-04T16:28:45.551Z,98231.89
2018-02-04T16:31:13.918Z,98224.82
2018-02-04T16:33:42.227Z,98232.69
2018-02-04T16:36:11.815Z,98233.27
2018-02-04T16:38:40.147Z,98237.02
2018-02-04T16:41:08.468Z,98225.16
2018-02-04T16:43:36.815Z,98238.95
2018-02-04T16:46:05.136Z,98240.28
2018-02-04T16:48:33.457Z,98238.22
2018-02-04T16:51:01.900Z,98250.41
2018-02-04T16:53:30.224Z,98246.89
2018-02-04T16:55:58.545Z,98256.77
2018-02-04T16:58:27.928Z,98254.27
2018-02-04T17:00:56.258Z,98255.28
2018-02-04T17:03:24.579Z,98259.97
2018-02-04T17:05:52.929Z,98259.89
2018-02-04T17:08:22.690Z,98262.58
2018-02-04T17:10:50.915Z,98261.45
2018-02-04T17:13:19.284Z,98268.08
2018-02-04T17:15:47.419Z,98261.44
2018-02-04T17:18:16.316Z,98260.38
2018-02-04T17:20:45.391Z,98264.36
2018-02-04T17:23:13.704Z,98268.18
2018-02-04T17:25:42.344Z,98269.25
2018-02-04T17:28:10.667Z,98273.40
2018-02-04T17:30:38.992Z,98278.63
2018-02-04T17:33:08.120Z,98282.22
2018-02-04T17:35:36.453Z,98279.45
2018-02-04T17:38:04.772Z,98282.39
2018-02-04T17:40:33.940Z,98282.60
2018-02-04T17:43:02.272Z,98285.30
2018-02-04T17:45:30.595Z,98288.97
2018-02-04T17:48:00.156Z,98290.20
2018-02-04T17:50:28.492Z,98296.16
2018-02-04T17:52:56.867Z,98291.70
2018-02-04T17:55:25.182Z,98304.69
2018-02-04T17:57:54.273Z,98303.27
2018-02-04T18:00:23.374Z,98305.48
2018-02-04T18:02:52.501Z,98312.38
2018-02-04T18:05:20.934Z,98317.44
2018-02-04T18:07:49.251Z,98316.75
2018-02-04T18:10:17.905Z,98322.78
2018-02-04T18:12:46.241Z,98315.66
2018-02-04T18:15:14.568Z,98322.32
2018-02-04T18:17:42.848Z,98322.61
2018-02-04T18:20:11.172Z,98324.55
2018-02-04T18:22:39.504Z,98326.92
2018-02-04T18:25:08.652Z,98326.92
2018-02-04T18:27:36.979Z,98330.39
2018-02-04T18:30:05.299Z,98327.72
2018-02-04T18:32:34.443Z,98329.61
2018-02-04T18:35:03.569Z,98328.02
2018-02-04T18:37:32.247Z,98333.19
2018-02-04T18:40:00.584Z,98337.08
2018-02-04T18:42:29.844Z,98338.89
2018-02-04T18:44:58.236Z,98335.91
2018-02-04T18:47:26.566Z,98340.64
2018-02-04T18:49:54.946Z,98335.53
2018-02-04T18:52:23.504Z,98346.41
2018-02-04T18:54:51.864Z,98342.71
2018-02-04T18:57:20.183Z,98343.38
2018-02-04T18:59:48.500Z,98344.30
2018-02-04T19:02:16.875Z,98342.88
2018-02-04T19:04:45.715Z,98349.70
2018-02-04T19:07:14.246Z,98347.36
2018-02-04T19:09:43.270Z,98349.17
2018-02-04T19:12:12.085Z,98350.03
2018-02-04T19:14:40.512Z,98354.64
2018-02-04T19:17:08.840Z,98355.51
2018-02-04T19:19:37.160Z,98351.52
2018-02-04T19:22:05.909Z,98361.44
2018-02-04T19:24:35.041Z,98363.48
2018-02-04T19:27:03.439Z,98367.17
2018-02-04T19:29:31.808Z,98370.08
2018-02-04T19:32:00.166Z,98370.27
2018-02-04T19:34:28.498Z,98375.31
2018-02-04T19:36:57.652Z,98375.15
2018-02-04T19:39:25.971Z,98377.36
2018-02-04T19:41:54.312Z,98384.38
2018-02-04T19:44:22.668Z,98383.23
2018-02-04T19:46:51.004Z,98385.92
2018-02-04T19:49:19.627Z,98391.37
2018-02-04T19:51:47.999Z,98388.00
2018-02-04T19:54:16.876Z,98395.52
2018-02-04T19:56:45.259Z,98401.34
2018-02-04T19:59:13.587Z,98398.88
2018-02-04T20:01:42.001Z,98405.11
2018-02-04T20:04:10.383Z,98404.28
2018-02-04T20:06:38.747Z,98410.34
2018-02-04T20:09:07.136Z,98412.62
2018-02-04T20:11:35.485Z,98415.13
2018-02-04T20:14:04.104Z,98418.49
2018-02-04T20:16:32.558Z,98423.11
2018-02-04T20:19:01.438Z,98421.56
2018-02-04T20:21:30.048Z,98424.98
2018-02-04T20:23:58.396Z,98424.80
2018-02-04T20:26:26.708Z,98424.16
2018-02-04T20:28:55.115Z,98431.05
2018-02-04T20:31:23.516Z,98430.83
2018-02-04T20:34:09.884Z,98426.64
2018-02-04T20:36:38.272Z,98434.81
2018-02-04T20:39:06.661Z,98438.94
2018-02-04T20:41:36.241Z,98432.08
2018-02-04T20:44:04.602Z,98439.03
2018-02-04T20:46:32.976Z,98436.42
2018-02-04T20:49:01.351Z,98436.03
2018-02-04T20:51:29.664Z,98436.70
2018-02-04T20:53:58.760Z,98435.84
2018-02-04T20:56:28.071Z,98438.17
2018-02-04T20:58:56.386Z,98437.67
2018-02-04T21:01:24.810Z,98437.32
2018-02-04T21:03:53.207Z,98438.70
2018-02-04T21:06:21.619Z,98440.81
2018-02-04T21:08:50.083Z,98444.34
2018-02-04T21:11:18.401Z,98444.67
2018-02-04T21:13:46.815Z,98448.20
2018-02-04T21:16:15.412Z,98441.48
2018-02-04T21:18:43.735Z,98446.55
2018-02-04T21:21:12.087Z,98443.65
2018-02-04T21:23:40.443Z,98445.76
2018-02-04T21:26:08.807Z,98440.98
2018-02-04T21:28:37.949Z,98450.47
2018-02-04T21:31:07.562Z,98449.62
2018-02-04T21:33:35.910Z,98452.95
2018-02-04T21:36:04.232Z,98448.33
2018-02-04T21:38:33.249Z,98452.59
2018-02-04T21:41:01.620Z,98459.61
2018-02-04T21:43:29.773Z,98466.77
2018-02-04T21:45:58.099Z,98460.63
2018-02-04T21:48:26.512Z,98470.72
2018-02-04T21:50:55.482Z,98473.32
2018-02-04T21:53:23.860Z,98473.85
2018-02-04T21:55:52.918Z,98477.14
2018-02-04T21:58:21.239Z,98474.41
2018-02-04T22:00:50.636Z,98480.12
2018-02-04T22:03:19.103Z,98482.89
2018-02-04T22:05:47.433Z,98482.27
2018-02-04T22:08:15.639Z,98476.86
2018-02-04T22:10:43.956Z,98480.91
2018-02-04T22:13:12.276Z,98480.84
2018-02-04T22:15:41.387Z,98480.22
2018-02-04T22:18:09.717Z,98483.87
2018-02-04T22:20:38.028Z,98483.67
2018-02-04T22:23:06.383Z,98486.77
2018-02-04T22:25:34.704Z,98483.58
2018-02-04T22:28:03.028Z,98486.80
2018-02-04T22:30:31.868Z,98493.92
2018-02-04T22:33:00.193Z,98493.76
2018-02-04T22:35:28.500Z,98491.72
2018-02-04T22:37:57.984Z,98497.47
2018-02-04T22:40:26.348Z,98494.09
2018-02-04T22:42:54.668Z,98496.34
2018-02-04T22:45:23.043Z,98498.84
2018-02-04T22:47:51.359Z,98494.45
2018-02-04T22:50:19.819Z,98501.78
2018-02-04T22:52:48.259Z,98502.61
2018-02-04T22:55:16.580Z,98507.84
2018-02-04T22:57:44.908Z,98499.19
2018-02-04T23:00:13.552Z,98512.61
2018-02-04T23:02:42.860Z,98513.67
2018-02-04T23:05:11.943Z,98508.88
2018-02-04T23:07:41.064Z,98515.47
2018-02-04T23:10:09.379Z,98517.22
2018-02-04T23:12:37.704Z,98520.30
2018-02-04T23:15:06.087Z,98515.72
2018-02-04T23:17:35.172Z,98522.42
2018-02-04T23:20:04.299Z,98520.92
2018-02-04T23:22:33.408Z,98523.37
2018-02-04T23:25:01.731Z,98521.75
2018-02-04T23:27:30.116Z,98518.86
2018-02-04T23:29:59.692Z,98513.70
2018-02-04T23:32:28.020Z,98520.02
2018-02-04T23:34:56.351Z,98514.18
2018-02-04T23:37:24.779Z,98510.27
2018-02-04T23:39:53.096Z,98512.42
2018-02-04T23:42:21.819Z,98518.00
2018-02-04T23:44:50.224Z,98513.16
2018-02-04T23:47:18.539Z,98522.00
2018-02-04T23:49:46.905Z,98516.83
2018-02-04T23:52:15.234Z,98519.72
2018-02-04T23:54:43.565Z,98518.97
2018-02-04T23:57:11.903Z,98512.81
2018-02-04T23:59:40.228Z,98520.02
